C6009 KMOB-KMOB
Flight info
| Callsign | C6009 |
|---|---|
| Flight time | 0h 2m |
| Altitude | 1000 |
| Route | KMOB KOMB |
| Aircraft | H60/M-SDFGRY/C |
Departure
| Time | 2026-04-27 23:16 |
|---|---|
| Airport | Mobile Regional Airport (KMOB) |
Arrival
| Time | 2026-04-27 23:19 |
|---|---|
| Airport | Mobile Regional Airport (KMOB) |
| Time | Latitude | Longitude | Altitude | Speed | Heading |
|---|---|---|---|---|---|
| 2026-04-27 22:21 | 30.69403 | -88.24176 | 220 ft | 0 kts | 358° |
| 2026-04-27 22:44 | 30.69406 | -88.24176 | 220 ft | 2 kts | 354° |
| 2026-04-27 22:45 | 30.69418 | -88.24203 | 220 ft | 6 kts | 251° |
| 2026-04-27 22:45 | 30.69388 | -88.24254 | 219 ft | 12 kts | 232° |
| 2026-04-27 22:45 | 30.69338 | -88.24322 | 217 ft | 6 kts | 197° |
| 2026-04-27 22:45 | 30.69306 | -88.24318 | 217 ft | 5 kts | 137° |
| 2026-04-27 22:46 | 30.69298 | -88.24310 | 217 ft | 0 kts | 162° |
| 2026-04-27 22:46 | 30.69299 | -88.24310 | 225 ft | 0 kts | 154° |
| 2026-04-27 22:46 | 30.69302 | -88.24312 | 231 ft | 2 kts | 152° |
| 2026-04-27 22:46 | 30.69300 | -88.24313 | 231 ft | 1 kts | 148° |
| 2026-04-27 22:47 | 30.69300 | -88.24312 | 231 ft | 1 kts | 151° |
| 2026-04-27 22:47 | 30.69301 | -88.24310 | 231 ft | 1 kts | 155° |
| 2026-04-27 22:47 | 30.69298 | -88.24310 | 232 ft | 0 kts | 150° |
| 2026-04-27 22:47 | 30.69290 | -88.24308 | 254 ft | 10 kts | 159° |
| 2026-04-27 22:48 | 30.69004 | -88.24281 | 547 ft | 75 kts | 170° |
| 2026-04-27 22:48 | 30.68354 | -88.24352 | 757 ft | 103 kts | 186° |
| 2026-04-27 22:48 | 30.67677 | -88.24554 | 704 ft | 100 kts | 192° |
| 2026-04-27 22:48 | 30.67008 | -88.24791 | 681 ft | 97 kts | 192° |
| 2026-04-27 22:49 | 30.66301 | -88.25016 | 667 ft | 109 kts | 192° |
| 2026-04-27 22:49 | 30.65633 | -88.25279 | 657 ft | 98 kts | 192° |
| 2026-04-27 22:49 | 30.64911 | -88.25500 | 662 ft | 106 kts | 192° |
| 2026-04-27 22:49 | 30.64227 | -88.25706 | 687 ft | 101 kts | 197° |
| 2026-04-27 22:50 | 30.63591 | -88.26064 | 683 ft | 96 kts | 202° |
| 2026-04-27 22:50 | 30.62938 | -88.26433 | 674 ft | 101 kts | 202° |
| 2026-04-27 22:50 | 30.62322 | -88.26794 | 676 ft | 98 kts | 202° |
| 2026-04-27 22:50 | 30.61698 | -88.27153 | 672 ft | 108 kts | 202° |
| 2026-04-27 22:51 | 30.61028 | -88.27503 | 679 ft | 106 kts | 202° |
| 2026-04-27 22:51 | 30.60388 | -88.27889 | 666 ft | 103 kts | 203° |
| 2026-04-27 22:51 | 30.59759 | -88.28243 | 658 ft | 96 kts | 202° |
| 2026-04-27 22:51 | 30.59175 | -88.28618 | 668 ft | 102 kts | 204° |
| 2026-04-27 22:52 | 30.58516 | -88.28977 | 681 ft | 100 kts | 201° |
| 2026-04-27 22:52 | 30.57920 | -88.29331 | 673 ft | 99 kts | 202° |
| 2026-04-27 22:52 | 30.57328 | -88.29692 | 671 ft | 97 kts | 202° |
| 2026-04-27 22:52 | 30.56725 | -88.30076 | 670 ft | 95 kts | 202° |
| 2026-04-27 22:53 | 30.56114 | -88.30390 | 683 ft | 81 kts | 184° |
| 2026-04-27 22:53 | 30.55723 | -88.30178 | 672 ft | 61 kts | 153° |
| 2026-04-27 22:53 | 30.55439 | -88.29644 | 668 ft | 99 kts | 122° |
| 2026-04-27 22:53 | 30.55132 | -88.28929 | 669 ft | 101 kts | 120° |
| 2026-04-27 22:54 | 30.54909 | -88.28187 | 655 ft | 98 kts | 113° |
| 2026-04-27 22:54 | 30.54722 | -88.27422 | 668 ft | 103 kts | 113° |
| 2026-04-27 22:54 | 30.54512 | -88.26592 | 676 ft | 108 kts | 113° |
| 2026-04-27 22:54 | 30.54302 | -88.25765 | 669 ft | 105 kts | 113° |
| 2026-04-27 22:55 | 30.54102 | -88.24953 | 670 ft | 102 kts | 113° |
| 2026-04-27 22:55 | 30.53893 | -88.24162 | 673 ft | 105 kts | 113° |
| 2026-04-27 22:55 | 30.53704 | -88.23357 | 671 ft | 105 kts | 113° |
| 2026-04-27 22:55 | 30.53486 | -88.22581 | 678 ft | 96 kts | 124° |
| 2026-04-27 22:56 | 30.52997 | -88.22082 | 656 ft | 99 kts | 146° |
| 2026-04-27 22:56 | 30.52446 | -88.21633 | 666 ft | 101 kts | 149° |
| 2026-04-27 22:56 | 30.51857 | -88.21191 | 668 ft | 102 kts | 149° |
| 2026-04-27 22:56 | 30.51271 | -88.20734 | 666 ft | 99 kts | 149° |
| 2026-04-27 22:57 | 30.50683 | -88.20346 | 673 ft | 98 kts | 149° |
| 2026-04-27 22:57 | 30.50108 | -88.19931 | 670 ft | 98 kts | 149° |
| 2026-04-27 22:57 | 30.49510 | -88.19525 | 679 ft | 88 kts | 135° |
| 2026-04-27 22:57 | 30.49427 | -88.19081 | 669 ft | 57 kts | 79° |
| 2026-04-27 22:58 | 30.49259 | -88.18484 | 666 ft | 100 kts | 109° |
| 2026-04-27 22:58 | 30.49206 | -88.17623 | 664 ft | 103 kts | 97° |
| 2026-04-27 22:58 | 30.49212 | -88.16795 | 650 ft | 101 kts | 97° |
| 2026-04-27 22:58 | 30.49220 | -88.15964 | 662 ft | 106 kts | 97° |
| 2026-04-27 22:59 | 30.49256 | -88.15091 | 672 ft | 108 kts | 97° |
| 2026-04-27 22:59 | 30.49280 | -88.14222 | 671 ft | 108 kts | 97° |
| 2026-04-27 22:59 | 30.49334 | -88.13349 | 668 ft | 110 kts | 94° |
| 2026-04-27 22:59 | 30.49400 | -88.12466 | 673 ft | 96 kts | 97° |
| 2026-04-27 23:00 | 30.49122 | -88.10900 | 686 ft | 108 kts | 103° |
| 2026-04-27 23:00 | 30.49392 | -88.10036 | 688 ft | 122 kts | 55° |
| 2026-04-27 23:00 | 30.49934 | -88.09287 | 680 ft | 120 kts | 57° |
| 2026-04-27 23:01 | 30.50564 | -88.08592 | 670 ft | 123 kts | 44° |
| 2026-04-27 23:01 | 30.51247 | -88.07993 | 669 ft | 128 kts | 44° |
| 2026-04-27 23:01 | 30.51953 | -88.07418 | 660 ft | 130 kts | 40° |
| 2026-04-27 23:01 | 30.52720 | -88.06862 | 666 ft | 128 kts | 39° |
| 2026-04-27 23:02 | 30.53409 | -88.06277 | 688 ft | 119 kts | 47° |
| 2026-04-27 23:02 | 30.53970 | -88.05516 | 689 ft | 135 kts | 63° |
| 2026-04-27 23:02 | 30.54268 | -88.04513 | 692 ft | 119 kts | 81° |
| 2026-04-27 23:02 | 30.54839 | -88.04039 | 697 ft | 104 kts | 13° |
| 2026-04-27 23:03 | 30.55666 | -88.03912 | 695 ft | 121 kts | 13° |
| 2026-04-27 23:03 | 30.56494 | -88.03887 | 693 ft | 126 kts | 356° |
| 2026-04-27 23:03 | 30.57385 | -88.04093 | 676 ft | 133 kts | 349° |
| 2026-04-27 23:03 | 30.58278 | -88.04326 | 679 ft | 128 kts | 349° |
| 2026-04-27 23:04 | 30.59031 | -88.04791 | 682 ft | 129 kts | 321° |
| 2026-04-27 23:04 | 30.59720 | -88.05440 | 675 ft | 122 kts | 321° |
| 2026-04-27 23:04 | 30.60422 | -88.06053 | 678 ft | 128 kts | 321° |
| 2026-04-27 23:04 | 30.61115 | -88.06667 | 686 ft | 125 kts | 321° |
| 2026-04-27 23:05 | 30.61835 | -88.07329 | 679 ft | 128 kts | 321° |
| 2026-04-27 23:05 | 30.62465 | -88.08029 | 668 ft | 139 kts | 313° |
| 2026-04-27 23:05 | 30.63078 | -88.08802 | 688 ft | 127 kts | 310° |
| 2026-04-27 23:05 | 30.63654 | -88.09605 | 691 ft | 127 kts | 310° |
| 2026-04-27 23:06 | 30.64215 | -88.10380 | 684 ft | 120 kts | 310° |
| 2026-04-27 23:06 | 30.64770 | -88.11116 | 679 ft | 128 kts | 310° |
| 2026-04-27 23:06 | 30.65372 | -88.11876 | 681 ft | 127 kts | 310° |
| 2026-04-27 23:06 | 30.65955 | -88.12630 | 679 ft | 125 kts | 308° |
| 2026-04-27 23:07 | 30.66533 | -88.13487 | 679 ft | 134 kts | 308° |
| 2026-04-27 23:07 | 30.67103 | -88.14316 | 674 ft | 129 kts | 308° |
| 2026-04-27 23:07 | 30.67652 | -88.15151 | 670 ft | 129 kts | 308° |
| 2026-04-27 23:07 | 30.68216 | -88.15986 | 673 ft | 132 kts | 308° |
| 2026-04-27 23:08 | 30.68800 | -88.16769 | 671 ft | 133 kts | 308° |
| 2026-04-27 23:08 | 30.69419 | -88.17622 | 682 ft | 140 kts | 308° |
| 2026-04-27 23:08 | 30.70035 | -88.18494 | 676 ft | 143 kts | 308° |
| 2026-04-27 23:08 | 30.70666 | -88.19371 | 670 ft | 140 kts | 308° |
| 2026-04-27 23:09 | 30.71294 | -88.20210 | 671 ft | 135 kts | 308° |
| 2026-04-27 23:09 | 30.71887 | -88.21060 | 677 ft | 135 kts | 308° |
| 2026-04-27 23:09 | 30.72442 | -88.21940 | 677 ft | 131 kts | 308° |
| 2026-04-27 23:09 | 30.72986 | -88.22805 | 671 ft | 134 kts | 308° |
| 2026-04-27 23:10 | 30.73542 | -88.23662 | 670 ft | 133 kts | 308° |
| 2026-04-27 23:10 | 30.74081 | -88.24483 | 675 ft | 125 kts | 308° |
| 2026-04-27 23:10 | 30.74625 | -88.25285 | 676 ft | 128 kts | 308° |
| 2026-04-27 23:10 | 30.75167 | -88.26070 | 672 ft | 130 kts | 308° |
| 2026-04-27 23:11 | 30.75717 | -88.26865 | 669 ft | 125 kts | 308° |
| 2026-04-27 23:11 | 30.76124 | -88.27711 | 674 ft | 114 kts | 276° |
| 2026-04-27 23:11 | 30.75982 | -88.28528 | 676 ft | 95 kts | 226° |
| 2026-04-27 23:11 | 30.75481 | -88.28903 | 672 ft | 82 kts | 188° |
| 2026-04-27 23:12 | 30.74943 | -88.28916 | 681 ft | 76 kts | 166° |
| 2026-04-27 23:12 | 30.74431 | -88.28703 | 671 ft | 86 kts | 161° |
| 2026-04-27 23:12 | 30.73800 | -88.28392 | 647 ft | 106 kts | 152° |
| 2026-04-27 23:12 | 30.73239 | -88.27922 | 678 ft | 93 kts | 144° |
| 2026-04-27 23:13 | 30.72699 | -88.27451 | 771 ft | 96 kts | 145° |
| 2026-04-27 23:13 | 30.72175 | -88.27012 | 688 ft | 91 kts | 146° |
| 2026-04-27 23:13 | 30.71665 | -88.26584 | 718 ft | 97 kts | 147° |
| 2026-04-27 23:13 | 30.71125 | -88.26136 | 647 ft | 85 kts | 145° |
| 2026-04-27 23:14 | 30.70706 | -88.25794 | 633 ft | 78 kts | 146° |
| 2026-04-27 23:14 | 30.70356 | -88.25506 | 426 ft | 41 kts | 140° |
| 2026-04-27 23:14 | 30.70172 | -88.25346 | 360 ft | 30 kts | 140° |
| 2026-04-27 23:14 | 30.70056 | -88.25252 | 299 ft | 11 kts | 135° |
| 2026-04-27 23:15 | 30.70019 | -88.25223 | 260 ft | 4 kts | 134° |
| 2026-04-27 23:15 | 30.69993 | -88.25196 | 321 ft | 22 kts | 142° |
| 2026-04-27 23:15 | 30.69599 | -88.24863 | 482 ft | 108 kts | 146° |
| 2026-04-27 23:15 | 30.68899 | -88.24287 | 543 ft | 134 kts | 146° |
| 2026-04-27 23:16 | 30.68129 | -88.23923 | 646 ft | 115 kts | 193° |
| 2026-04-27 23:16 | 30.67925 | -88.24816 | 661 ft | 140 kts | 291° |
| 2026-04-27 23:16 | 30.68656 | -88.25633 | 757 ft | 151 kts | 319° |
| 2026-04-27 23:16 | 30.69473 | -88.26447 | 925 ft | 159 kts | 316° |
| 2026-04-27 23:17 | 30.70304 | -88.27296 | 1014 ft | 163 kts | 314° |
| 2026-04-27 23:17 | 30.71203 | -88.28106 | 1010 ft | 163 kts | 343° |
| 2026-04-27 23:17 | 30.72002 | -88.27583 | 787 ft | 129 kts | 79° |
| 2026-04-27 23:17 | 30.71772 | -88.26716 | 845 ft | 119 kts | 137° |
| 2026-04-27 23:18 | 30.71125 | -88.26124 | 750 ft | 106 kts | 145° |
| 2026-04-27 23:18 | 30.70602 | -88.25688 | 681 ft | 87 kts | 146° |
| 2026-04-27 23:18 | 30.70129 | -88.25311 | 600 ft | 84 kts | 147° |
| 2026-04-27 23:18 | 30.69710 | -88.24968 | 368 ft | 56 kts | 142° |
| 2026-04-27 23:19 | 30.69510 | -88.24795 | 288 ft | 24 kts | 137° |
| 2026-04-27 23:19 | 30.69456 | -88.24667 | 233 ft | 7 kts | 76° |
| 2026-04-27 23:19 | 30.69457 | -88.24657 | 220 ft | 0 kts | 81° |
| 2026-04-27 23:19 | 30.69460 | -88.24622 | 220 ft | 8 kts | 88° |
| 2026-04-27 23:20 | 30.69470 | -88.24541 | 220 ft | 9 kts | 86° |
| 2026-04-27 23:20 | 30.69473 | -88.24472 | 220 ft | 7 kts | 94° |
| 2026-04-27 23:20 | 30.69473 | -88.24407 | 220 ft | 7 kts | 86° |
| 2026-04-27 23:20 | 30.69486 | -88.24345 | 221 ft | 10 kts | 62° |
| 2026-04-27 23:21 | 30.69501 | -88.24289 | 222 ft | 8 kts | 138° |
| 2026-04-27 23:21 | 30.69435 | -88.24304 | 219 ft | 11 kts | 217° |
| 2026-04-27 23:21 | 30.69373 | -88.24317 | 218 ft | 12 kts | 171° |
| 2026-04-27 23:21 | 30.69322 | -88.24268 | 218 ft | 12 kts | 85° |
| 2026-04-27 23:22 | 30.69352 | -88.24236 | 219 ft | 0 kts | 356° |
| 2026-04-27 23:24 | 30.69383 | -88.24207 | 220 ft | 0 kts | 0° |
| 2026-04-27 23:28 | 30.69387 | -88.24207 | 220 ft | 3 kts | 340° |
| 2026-04-27 23:28 | 30.69385 | -88.24257 | 219 ft | 10 kts | 248° |
| 2026-04-27 23:28 | 30.69347 | -88.24307 | 217 ft | 8 kts | 200° |
| 2026-04-27 23:28 | 30.69312 | -88.24322 | 219 ft | 1 kts | 198° |
| 2026-04-27 23:29 | 30.69263 | -88.24321 | 305 ft | 31 kts | 179° |
| 2026-04-27 23:29 | 30.68735 | -88.24436 | 651 ft | 120 kts | 189° |
| 2026-04-27 23:29 | 30.67891 | -88.24899 | 750 ft | 140 kts | 205° |
| 2026-04-27 23:29 | 30.67026 | -88.25477 | 888 ft | 147 kts | 208° |
| 2026-04-27 23:30 | 30.66180 | -88.26070 | 1161 ft | 142 kts | 208° |
| 2026-04-27 23:30 | 30.65238 | -88.26630 | 1041 ft | 146 kts | 204° |
| 2026-04-27 23:30 | 30.64361 | -88.27120 | 1188 ft | 141 kts | 204° |
| 2026-04-27 23:30 | 30.63485 | -88.27560 | 869 ft | 139 kts | 198° |
| 2026-04-27 23:31 | 30.62560 | -88.27946 | 866 ft | 145 kts | 199° |
| 2026-04-27 23:31 | 30.61617 | -88.28290 | 979 ft | 139 kts | 194° |
| 2026-04-27 23:31 | 30.60651 | -88.28424 | 1009 ft | 144 kts | 185° |
| 2026-04-27 23:31 | 30.59659 | -88.28532 | 1036 ft | 141 kts | 185° |
| 2026-04-27 23:32 | 30.58671 | -88.28634 | 1084 ft | 146 kts | 185° |
| 2026-04-27 23:32 | 30.57660 | -88.28749 | 1006 ft | 148 kts | 185° |
| 2026-04-27 23:32 | 30.56644 | -88.28863 | 1030 ft | 136 kts | 185° |
| 2026-04-27 23:32 | 30.55704 | -88.28961 | 951 ft | 141 kts | 184° |
| 2026-04-27 23:33 | 30.54729 | -88.28915 | 734 ft | 140 kts | 172° |
| 2026-04-27 23:33 | 30.53780 | -88.28763 | 751 ft | 136 kts | 171° |
| 2026-04-27 23:33 | 30.52810 | -88.28598 | 764 ft | 145 kts | 166° |
| 2026-04-27 23:33 | 30.51856 | -88.28393 | 781 ft | 141 kts | 167° |
| 2026-04-27 23:34 | 30.50917 | -88.28160 | 890 ft | 134 kts | 167° |
| 2026-04-27 23:34 | 30.49974 | -88.27925 | 882 ft | 148 kts | 167° |
| 2026-04-27 23:34 | 30.48809 | -88.27642 | 819 ft | 186 kts | 167° |
| 2026-04-27 23:34 | 30.47645 | -88.27353 | 883 ft | 162 kts | 167° |
| 2026-04-27 23:35 | 30.46573 | -88.27079 | 933 ft | 154 kts | 167° |
| 2026-04-27 23:35 | 30.45534 | -88.26818 | 943 ft | 153 kts | 167° |
| 2026-04-27 23:35 | 30.44505 | -88.26558 | 918 ft | 152 kts | 168° |
| 2026-04-27 23:35 | 30.43545 | -88.26323 | 1116 ft | 130 kts | 171° |
| 2026-04-27 23:36 | 30.42585 | -88.26153 | 1106 ft | 140 kts | 173° |
| 2026-04-27 23:36 | 30.41628 | -88.25994 | 1130 ft | 139 kts | 173° |
| 2026-04-27 23:36 | 30.40661 | -88.25841 | 1145 ft | 141 kts | 173° |
| 2026-04-27 23:36 | 30.39701 | -88.25698 | 1154 ft | 139 kts | 173° |
| 2026-04-27 23:37 | 30.38729 | -88.25544 | 1163 ft | 142 kts | 172° |
| 2026-04-27 23:37 | 30.37768 | -88.25406 | 1159 ft | 137 kts | 172° |
| 2026-04-27 23:37 | 30.36796 | -88.25265 | 1168 ft | 142 kts | 172° |
| 2026-04-27 23:37 | 30.35836 | -88.25126 | 1162 ft | 141 kts | 173° |
| 2026-04-27 23:38 | 30.34870 | -88.24980 | 1161 ft | 139 kts | 173° |
| 2026-04-27 23:38 | 30.33903 | -88.24861 | 1163 ft | 140 kts | 172° |
| 2026-04-27 23:38 | 30.32938 | -88.24721 | 1165 ft | 142 kts | 172° |
| 2026-04-27 23:38 | 30.31934 | -88.24595 | 1166 ft | 139 kts | 173° |
| 2026-04-27 23:39 | 30.30966 | -88.24459 | 1170 ft | 139 kts | 173° |
| 2026-04-27 23:39 | 30.30002 | -88.24322 | 1166 ft | 140 kts | 172° |
| 2026-04-27 23:39 | 30.29037 | -88.24178 | 1166 ft | 141 kts | 172° |
| 2026-04-27 23:39 | 30.28070 | -88.24019 | 1162 ft | 140 kts | 173° |
| 2026-04-27 23:40 | 30.27107 | -88.23895 | 1160 ft | 139 kts | 173° |
| 2026-04-27 23:40 | 30.26153 | -88.23770 | 1162 ft | 137 kts | 172° |
| 2026-04-27 23:40 | 30.25201 | -88.23639 | 1161 ft | 140 kts | 172° |
| 2026-04-27 23:40 | 30.24234 | -88.23503 | 1162 ft | 139 kts | 173° |
| 2026-04-27 23:41 | 30.23269 | -88.23366 | 1163 ft | 138 kts | 173° |
| 2026-04-27 23:41 | 30.22306 | -88.23218 | 1161 ft | 141 kts | 173° |
| 2026-04-27 23:41 | 30.21336 | -88.23077 | 1161 ft | 139 kts | 173° |
| 2026-04-27 23:41 | 30.20391 | -88.22940 | 1160 ft | 136 kts | 172° |
| 2026-04-27 23:42 | 30.19419 | -88.22801 | 1165 ft | 138 kts | 173° |
| 2026-04-27 23:42 | 30.18466 | -88.22665 | 1161 ft | 135 kts | 173° |
| 2026-04-27 23:42 | 30.17500 | -88.22529 | 1161 ft | 139 kts | 173° |
| 2026-04-27 23:42 | 30.16528 | -88.22391 | 1159 ft | 141 kts | 172° |
| 2026-04-27 23:43 | 30.15547 | -88.22258 | 1158 ft | 139 kts | 173° |
| 2026-04-27 23:43 | 30.14583 | -88.22126 | 1161 ft | 138 kts | 173° |
| 2026-04-27 23:43 | 30.13604 | -88.21995 | 1163 ft | 144 kts | 172° |
| 2026-04-27 23:43 | 30.12633 | -88.21855 | 1159 ft | 139 kts | 172° |
| 2026-04-27 23:44 | 30.11667 | -88.21714 | 1161 ft | 139 kts | 172° |
| 2026-04-27 23:44 | 30.10694 | -88.21590 | 1164 ft | 135 kts | 172° |
| 2026-04-27 23:44 | 30.09732 | -88.21476 | 1161 ft | 138 kts | 173° |
| 2026-04-27 23:44 | 30.08734 | -88.21341 | 1158 ft | 145 kts | 172° |
| 2026-04-27 23:45 | 30.07748 | -88.21215 | 1163 ft | 137 kts | 172° |
| 2026-04-27 23:45 | 30.06788 | -88.21111 | 1163 ft | 139 kts | 172° |
| 2026-04-27 23:45 | 30.05799 | -88.20989 | 1165 ft | 139 kts | 172° |
| 2026-04-27 23:45 | 30.04810 | -88.20861 | 1165 ft | 139 kts | 172° |
| 2026-04-27 23:46 | 30.03831 | -88.20753 | 1161 ft | 138 kts | 172° |
| 2026-04-27 23:46 | 30.02855 | -88.20634 | 1161 ft | 138 kts | 173° |
| 2026-04-27 23:46 | 30.01892 | -88.20519 | 1160 ft | 139 kts | 173° |
| 2026-04-27 23:46 | 30.00961 | -88.20395 | 1162 ft | 134 kts | 172° |
| 2026-04-27 23:47 | 29.99994 | -88.20271 | 1167 ft | 140 kts | 172° |
| 2026-04-27 23:47 | 29.99036 | -88.20156 | 1166 ft | 135 kts | 173° |
| 2026-04-27 23:47 | 29.98088 | -88.20037 | 1166 ft | 139 kts | 172° |
| 2026-04-27 23:47 | 29.97161 | -88.19880 | 1001 ft | 128 kts | 168° |
| 2026-04-27 23:48 | 29.96323 | -88.19594 | 834 ft | 126 kts | 159° |
| 2026-04-27 23:48 | 29.95481 | -88.19125 | 731 ft | 137 kts | 142° |
| 2026-04-27 23:48 | 29.94765 | -88.18412 | 680 ft | 138 kts | 138° |
| 2026-04-27 23:48 | 29.94087 | -88.17596 | 456 ft | 143 kts | 134° |
| 2026-04-27 23:49 | 29.93829 | -88.16677 | 452 ft | 125 kts | 71° |
| 2026-04-27 23:49 | 29.94559 | -88.16578 | 446 ft | 120 kts | 321° |
| 2026-04-27 23:49 | 29.94882 | -88.17352 | 575 ft | 97 kts | 272° |
| 2026-04-27 23:49 | 29.94936 | -88.18133 | 558 ft | 101 kts | 262° |
| 2026-04-27 23:50 | 29.94749 | -88.18843 | 416 ft | 89 kts | 210° |
| 2026-04-27 23:50 | 29.94312 | -88.18691 | 218 ft | 69 kts | 142° |
| 2026-04-27 23:50 | 29.94071 | -88.18328 | 216 ft | 41 kts | 103° |
| 2026-04-27 23:50 | 29.94063 | -88.18038 | 211 ft | 37 kts | 94° |
| 2026-04-27 23:51 | 29.94068 | -88.17830 | 217 ft | 13 kts | 94° |
| 2026-04-27 23:51 | 29.94066 | -88.17751 | 152 ft | 11 kts | 94° |
| 2026-04-27 23:51 | 29.94064 | -88.17653 | 119 ft | 12 kts | 92° |
| 2026-04-27 23:51 | 29.94063 | -88.17588 | 91 ft | 6 kts | 91° |
| 2026-04-27 23:52 | 29.94064 | -88.17545 | 55 ft | 4 kts | 92° |
| 2026-04-27 23:52 | 29.94064 | -88.17522 | 46 ft | 2 kts | 90° |
| 2026-04-27 23:52 | 29.94064 | -88.17512 | 33 ft | 1 kts | 90° |
| 2026-04-27 23:52 | 29.94065 | -88.17564 | 84 ft | 23 kts | 89° |
| 2026-04-27 23:53 | 29.94063 | -88.17677 | 141 ft | 1 kts | 89° |
| 2026-04-27 23:53 | 29.94063 | -88.17641 | 109 ft | 11 kts | 89° |
| 2026-04-27 23:53 | 29.94062 | -88.17550 | 86 ft | 10 kts | 91° |
| 2026-04-27 23:53 | 29.94063 | -88.17492 | 60 ft | 4 kts | 90° |
| 2026-04-27 23:54 | 29.94064 | -88.17464 | 45 ft | 2 kts | 89° |
| 2026-04-27 23:54 | 29.94064 | -88.17455 | 31 ft | 1 kts | 90° |
| 2026-04-27 23:54 | 29.94073 | -88.17449 | 54 ft | 13 kts | 89° |
| 2026-04-27 23:54 | 29.94410 | -88.17412 | 235 ft | 105 kts | 345° |
| 2026-04-27 23:55 | 29.94888 | -88.18108 | 339 ft | 97 kts | 238° |
| 2026-04-27 23:55 | 29.94566 | -88.18289 | 171 ft | 69 kts | 155° |
| 2026-04-27 23:55 | 29.94081 | -88.18133 | 276 ft | 51 kts | 99° |
| 2026-04-27 23:55 | 29.94076 | -88.17769 | 193 ft | 39 kts | 92° |
| 2026-04-27 23:56 | 29.94066 | -88.17540 | 138 ft | 22 kts | 91° |
| 2026-04-27 23:56 | 29.94064 | -88.17447 | 75 ft | 9 kts | 93° |
| 2026-04-27 23:56 | 29.94064 | -88.17395 | 55 ft | 4 kts | 91° |
| 2026-04-27 23:56 | 29.94064 | -88.17376 | 41 ft | 2 kts | 90° |
| 2026-04-27 23:57 | 29.94064 | -88.17366 | 33 ft | 1 kts | 90° |
| 2026-04-27 23:57 | 29.94064 | -88.17358 | 33 ft | 1 kts | 90° |
| 2026-04-27 23:57 | 29.94064 | -88.17350 | 35 ft | 1 kts | 90° |
| 2026-04-27 23:57 | 29.94360 | -88.17266 | 178 ft | 100 kts | 28° |
| 2026-04-27 23:58 | 29.95328 | -88.17234 | 270 ft | 169 kts | 359° |
| 2026-04-27 23:58 | 29.96542 | -88.17549 | 333 ft | 188 kts | 347° |
| 2026-04-27 23:58 | 29.97772 | -88.18127 | 326 ft | 192 kts | 334° |
| 2026-04-27 23:58 | 29.98956 | -88.18813 | 482 ft | 181 kts | 342° |
| 2026-04-27 23:59 | 30.00198 | -88.19337 | 497 ft | 196 kts | 342° |
| 2026-04-27 23:59 | 30.01485 | -88.19873 | 463 ft | 188 kts | 342° |
| 2026-04-27 23:59 | 30.02725 | -88.20414 | 452 ft | 190 kts | 342° |
| 2026-04-27 23:59 | 30.03950 | -88.20955 | 437 ft | 193 kts | 342° |
| 2026-04-28 00:00 | 30.05170 | -88.21494 | 459 ft | 198 kts | 342° |
| 2026-04-28 00:00 | 30.06442 | -88.21993 | 463 ft | 189 kts | 342° |
| 2026-04-28 00:00 | 30.07686 | -88.22488 | 468 ft | 192 kts | 342° |
| 2026-04-28 00:00 | 30.08971 | -88.23002 | 474 ft | 189 kts | 342° |
| 2026-04-28 00:01 | 30.10229 | -88.23500 | 469 ft | 190 kts | 342° |
| 2026-04-28 00:01 | 30.11517 | -88.24029 | 478 ft | 198 kts | 342° |
| 2026-04-28 00:01 | 30.12816 | -88.24561 | 477 ft | 195 kts | 342° |
| 2026-04-28 00:01 | 30.14075 | -88.25117 | 485 ft | 193 kts | 342° |
| 2026-04-28 00:02 | 30.15343 | -88.25648 | 490 ft | 196 kts | 342° |
| 2026-04-28 00:02 | 30.16615 | -88.26170 | 487 ft | 194 kts | 342° |
| 2026-04-28 00:02 | 30.17843 | -88.26689 | 482 ft | 186 kts | 342° |
| 2026-04-28 00:02 | 30.19092 | -88.27208 | 481 ft | 192 kts | 342° |
| 2026-04-28 00:03 | 30.20344 | -88.27726 | 477 ft | 193 kts | 342° |
| 2026-04-28 00:03 | 30.21633 | -88.28246 | 478 ft | 190 kts | 342° |
| 2026-04-28 00:03 | 30.22887 | -88.28756 | 321 ft | 200 kts | 342° |
| 2026-04-28 00:03 | 30.24188 | -88.29281 | 380 ft | 195 kts | 342° |
| 2026-04-28 00:04 | 30.25449 | -88.29797 | 416 ft | 188 kts | 342° |
| 2026-04-28 00:04 | 30.27960 | -88.30821 | 399 ft | 194 kts | 342° |
| 2026-04-28 00:04 | 30.29152 | -88.31010 | 398 ft | 153 kts | 14° |
| 2026-04-28 00:05 | 30.30310 | -88.30709 | 388 ft | 184 kts | 17° |
| 2026-04-28 00:05 | 30.31570 | -88.30378 | 385 ft | 188 kts | 15° |
| 2026-04-28 00:05 | 30.32426 | -88.30158 | 347 ft | 186 kts | 16° |
| 2026-04-28 00:05 | 30.33711 | -88.29864 | 355 ft | 186 kts | 15° |
| 2026-04-28 00:06 | 30.35348 | -88.29474 | 357 ft | 186 kts | 16° |
| 2026-04-28 00:06 | 30.36215 | -88.29294 | 380 ft | 187 kts | 16° |
| 2026-04-28 00:06 | 30.37517 | -88.28988 | 379 ft | 186 kts | 15° |
| 2026-04-28 00:06 | 30.38767 | -88.28678 | 736 ft | 183 kts | 16° |
| 2026-04-28 00:07 | 30.40047 | -88.28355 | 1221 ft | 199 kts | 15° |
| 2026-04-28 00:07 | 30.41426 | -88.28019 | 776 ft | 210 kts | 16° |
| 2026-04-28 00:07 | 30.42802 | -88.27625 | 526 ft | 197 kts | 17° |
| 2026-04-28 00:07 | 30.44149 | -88.27248 | 424 ft | 200 kts | 15° |
| 2026-04-28 00:08 | 30.45505 | -88.26944 | 385 ft | 194 kts | 13° |
| 2026-04-28 00:08 | 30.46823 | -88.26689 | 405 ft | 189 kts | 7° |
| 2026-04-28 00:08 | 30.48107 | -88.26651 | 587 ft | 184 kts | 4° |
| 2026-04-28 00:08 | 30.49396 | -88.26674 | 710 ft | 189 kts | 5° |
| 2026-04-28 00:09 | 30.50714 | -88.26695 | 781 ft | 190 kts | 2° |
| 2026-04-28 00:09 | 30.52061 | -88.26708 | 809 ft | 195 kts | 2° |
| 2026-04-28 00:09 | 30.53435 | -88.26789 | 740 ft | 201 kts | 359° |
| 2026-04-28 00:09 | 30.54813 | -88.26939 | 719 ft | 194 kts | 0° |
| 2026-04-28 00:10 | 30.56153 | -88.27040 | 838 ft | 199 kts | 360° |
| 2026-04-28 00:10 | 30.57573 | -88.27128 | 575 ft | 206 kts | 0° |
| 2026-04-28 00:10 | 30.58984 | -88.27120 | 598 ft | 198 kts | 5° |
| 2026-04-28 00:10 | 30.60360 | -88.26937 | 624 ft | 202 kts | 10° |
| 2026-04-28 00:11 | 30.61726 | -88.26655 | 623 ft | 196 kts | 14° |
| 2026-04-28 00:11 | 30.63020 | -88.26246 | 635 ft | 195 kts | 20° |
| 2026-04-28 00:11 | 30.64313 | -88.25795 | 761 ft | 194 kts | 19° |
| 2026-04-28 00:11 | 30.65630 | -88.25452 | 735 ft | 191 kts | 16° |
| 2026-04-28 00:12 | 30.66893 | -88.25098 | 660 ft | 182 kts | 16° |
| 2026-04-28 00:12 | 30.68012 | -88.24783 | 421 ft | 140 kts | 21° |
| 2026-04-28 00:12 | 30.68765 | -88.24536 | 314 ft | 89 kts | 25° |
| 2026-04-28 00:12 | 30.69182 | -88.24380 | 247 ft | 34 kts | 21° |
| 2026-04-28 00:13 | 30.69330 | -88.24309 | 240 ft | 24 kts | 7° |
| 2026-04-28 00:13 | 30.69379 | -88.24299 | 218 ft | 0 kts | 6° |